createdAt,value
2023-01-13T00:01:59.342Z,18.67
2023-01-13T00:05:03.641Z,18.58
2023-01-13T00:08:08.100Z,18.73
2023-01-13T00:11:12.111Z,17.60
2023-01-13T00:14:15.723Z,17.70
2023-01-13T00:17:18.953Z,18.60
2023-01-13T00:20:22.384Z,17.15
2023-01-13T00:23:28.919Z,17.17
2023-01-13T00:26:36.122Z,16.57
2023-01-13T00:29:39.782Z,16.92
2023-01-13T00:32:43.217Z,16.65
2023-01-13T00:35:56.381Z,15.60
2023-01-13T00:39:00.546Z,15.30
2023-01-13T00:42:22.375Z,14.87
2023-01-13T00:45:24.970Z,14.82
2023-01-13T00:48:29.440Z,14.18
2023-01-13T00:51:32.495Z,14.57
2023-01-13T00:54:35.729Z,14.55
2023-01-13T00:57:39.444Z,14.65
2023-01-13T01:00:42.356Z,15.18
2023-01-13T01:03:48.035Z,15.17
2023-01-13T01:06:51.414Z,15.63
2023-01-13T01:09:54.256Z,14.57
2023-01-13T01:13:00.413Z,16.60
2023-01-13T01:16:09.059Z,15.77
2023-01-13T01:19:12.360Z,16.25
2023-01-13T01:22:16.590Z,18.50
2023-01-13T01:25:19.520Z,17.75
2023-01-13T01:28:22.491Z,17.20
2023-01-13T01:31:28.760Z,16.50
2023-01-13T01:34:32.119Z,15.52
2023-01-13T01:37:35.324Z,15.15
2023-01-13T01:40:41.704Z,15.70
2023-01-13T01:44:24.168Z,15.05
2023-01-13T01:47:29.055Z,14.50
2023-01-13T01:50:34.137Z,14.52
2023-01-13T01:53:37.369Z,15.57
2023-01-13T01:56:44.084Z,15.95
2023-01-13T01:59:47.002Z,15.20
2023-01-13T02:02:51.791Z,14.48
2023-01-13T02:05:56.312Z,13.85
2023-01-13T02:09:00.522Z,15.07
2023-01-13T02:12:23.336Z,13.95
2023-01-13T02:15:30.967Z,14.95
2023-01-13T02:18:46.827Z,16.67
2023-01-13T02:22:18.381Z,16.20
2023-01-13T02:25:59.900Z,15.60
2023-01-13T02:29:59.976Z,16.73
2023-01-13T02:33:10.027Z,17.77
2023-01-13T02:36:24.518Z,19.00
2023-01-13T02:39:43.805Z,21.62
2023-01-13T02:43:37.005Z,20.15
2023-01-13T02:46:43.981Z,16.02
2023-01-13T02:49:53.390Z,16.87
2023-01-13T02:53:02.233Z,15.52
2023-01-13T02:56:07.219Z,17.12
2023-01-13T02:59:12.786Z,15.35
2023-01-13T03:02:21.492Z,15.95
2023-01-13T03:05:25.279Z,15.68
2023-01-13T03:08:39.589Z,16.60
2023-01-13T03:12:15.521Z,17.60
2023-01-13T03:15:37.144Z,19.08
2023-01-13T03:18:56.523Z,23.45
2023-01-13T03:22:15.113Z,23.08
2023-01-13T03:25:26.037Z,25.80
2023-01-13T03:28:49.242Z,31.30
2023-01-13T03:32:01.473Z,29.07
2023-01-13T03:35:33.605Z,18.37
2023-01-13T03:38:43.136Z,15.35
2023-01-13T03:41:57.307Z,15.73
2023-01-13T03:45:02.890Z,14.10
2023-01-13T03:48:14.062Z,14.30
2023-01-13T03:51:22.428Z,14.40
2023-01-13T03:54:30.966Z,13.82
2023-01-13T03:57:39.366Z,13.57
2023-01-13T04:01:08.866Z,14.67
2023-01-13T04:04:24.415Z,13.30
2023-01-13T04:07:50.968Z,13.15
2023-01-13T04:11:31.306Z,14.40
2023-01-13T04:14:35.884Z,13.60
2023-01-13T04:17:39.362Z,13.20
2023-01-13T04:20:47.274Z,12.23
2023-01-13T04:23:51.557Z,14.27
2023-01-13T04:26:56.608Z,12.15
2023-01-13T04:30:00.567Z,13.15
2023-01-13T04:33:04.495Z,14.27
2023-01-13T04:36:09.093Z,13.50
2023-01-13T04:39:12.092Z,12.90
2023-01-13T04:42:15.325Z,14.43
2023-01-13T04:45:18.532Z,12.47
2023-01-13T04:48:22.693Z,12.63
2023-01-13T04:51:29.302Z,12.82
2023-01-13T04:54:34.134Z,12.73
2023-01-13T04:57:37.810Z,13.00
2023-01-13T05:00:41.575Z,12.98
2023-01-13T05:03:44.297Z,13.65
2023-01-13T05:06:47.951Z,12.75
2023-01-13T05:09:50.879Z,12.50
2023-01-13T05:13:16.067Z,12.40
2023-01-13T05:16:43.619Z,13.30
2023-01-13T05:19:47.623Z,15.05
2023-01-13T05:23:10.024Z,14.45
2023-01-13T05:26:15.171Z,13.37
2023-01-13T05:29:22.196Z,14.57
2023-01-13T05:32:28.169Z,14.38
2023-01-13T05:35:32.702Z,13.93
2023-01-13T05:38:38.845Z,14.23
2023-01-13T05:42:03.060Z,15.75
2023-01-13T05:45:08.099Z,13.25
2023-01-13T05:48:12.980Z,13.40
2023-01-13T05:51:17.237Z,13.70
2023-01-13T05:54:20.039Z,12.40
2023-01-13T05:57:28.097Z,14.15
2023-01-13T06:00:32.318Z,12.05
2023-01-13T06:03:40.991Z,12.90
2023-01-13T06:06:45.923Z,15.50
2023-01-13T06:09:49.352Z,21.55
2023-01-13T06:12:54.301Z,16.55
2023-01-13T06:16:01.028Z,13.88
2023-01-13T06:19:09.152Z,17.27
2023-01-13T06:22:16.845Z,13.90
2023-01-13T06:25:43.349Z,18.37
2023-01-13T06:28:47.711Z,21.27
2023-01-13T06:31:50.863Z,22.13
2023-01-13T06:34:59.297Z,16.97
2023-01-13T06:38:08.111Z,16.45
2023-01-13T06:41:16.062Z,17.42
2023-01-13T06:44:20.619Z,14.75
2023-01-13T06:47:23.849Z,14.27
2023-01-13T06:50:29.494Z,13.98
2023-01-13T06:53:37.343Z,14.77
2023-01-13T06:56:41.904Z,13.50
2023-01-13T06:59:50.545Z,13.15
2023-01-13T07:02:53.837Z,12.97
2023-01-13T07:06:08.149Z,13.27
2023-01-13T07:09:13.238Z,13.27
2023-01-13T07:12:19.124Z,12.23
2023-01-13T07:15:24.144Z,11.50
2023-01-13T07:18:31.572Z,10.03
2023-01-13T07:21:34.433Z,10.85
2023-01-13T07:24:37.556Z,10.80
2023-01-13T07:27:41.613Z,12.37
2023-01-13T07:30:48.470Z,11.70
2023-01-13T07:33:51.763Z,11.43
2023-01-13T07:36:56.265Z,11.18
2023-01-13T07:40:04.332Z,10.18
2023-01-13T07:43:31.981Z,9.07
2023-01-13T07:46:35.165Z,9.13
2023-01-13T07:49:39.451Z,11.15
2023-01-13T07:52:42.894Z,10.95
2023-01-13T07:55:45.719Z,11.23
2023-01-13T07:58:51.184Z,10.30
2023-01-13T08:01:54.338Z,9.30
2023-01-13T08:04:59.024Z,9.95
2023-01-13T08:08:03.236Z,9.63
2023-01-13T08:11:08.255Z,8.60
2023-01-13T08:14:13.221Z,9.63
2023-01-13T08:17:16.441Z,9.27
2023-01-13T08:20:21.336Z,19.95
2023-01-13T08:23:24.614Z,11.15
2023-01-13T08:26:28.365Z,13.02
2023-01-13T08:29:40.998Z,11.80
2023-01-13T08:32:47.898Z,12.87
2023-01-13T08:35:53.387Z,12.37
2023-01-13T08:38:56.400Z,11.40
2023-01-13T08:42:01.244Z,11.88
2023-01-13T08:45:07.083Z,12.48
2023-01-13T08:48:11.206Z,15.13
2023-01-13T08:51:23.963Z,12.98
2023-01-13T08:54:28.205Z,11.85
2023-01-13T08:57:33.046Z,12.30
2023-01-13T09:00:44.875Z,12.70
2023-01-13T09:03:52.212Z,17.70
2023-01-13T09:06:56.722Z,23.02
2023-01-13T09:10:01.778Z,14.35
2023-01-13T09:13:14.703Z,15.25
2023-01-13T09:16:18.867Z,12.77
2023-01-13T09:19:22.063Z,11.12
2023-01-13T09:22:28.691Z,12.00
2023-01-13T09:25:32.549Z,10.60
2023-01-13T09:28:35.138Z,10.73
2023-01-13T09:31:38.587Z,11.95
2023-01-13T09:35:00.868Z,12.63
2023-01-13T09:38:04.354Z,15.63
2023-01-13T09:41:27.443Z,13.45
2023-01-13T09:45:00.170Z,12.33
2023-01-13T09:48:16.906Z,12.07
2023-01-13T09:51:30.994Z,13.65
2023-01-13T09:54:41.260Z,14.02
2023-01-13T09:57:45.872Z,17.73
2023-01-13T10:01:09.713Z,19.73
2023-01-13T10:04:15.354Z,19.17
2023-01-13T10:07:19.418Z,17.33
2023-01-13T10:10:38.916Z,14.05
2023-01-13T10:13:44.004Z,13.02
2023-01-13T10:17:19.087Z,12.77
2023-01-13T10:21:03.817Z,14.05
2023-01-13T10:24:20.717Z,12.60
2023-01-13T10:27:32.244Z,13.80
2023-01-13T10:30:42.003Z,13.90
2023-01-13T10:33:48.155Z,12.37
2023-01-13T10:37:03.878Z,11.90
2023-01-13T10:40:18.262Z,12.20
2023-01-13T10:43:23.055Z,14.30
2023-01-13T10:46:27.369Z,13.07
2023-01-13T10:49:37.110Z,12.57
2023-01-13T10:53:01.989Z,11.65
2023-01-13T10:56:06.962Z,12.80
2023-01-13T10:59:13.398Z,12.70
2023-01-13T11:02:32.306Z,11.50
2023-01-13T11:05:43.066Z,12.52
2023-01-13T11:08:51.000Z,11.52
2023-01-13T11:11:57.090Z,12.00
2023-01-13T11:15:07.247Z,12.40
2023-01-13T11:18:40.464Z,12.67
2023-01-13T11:21:58.961Z,12.35
2023-01-13T11:25:07.348Z,12.98
2023-01-13T11:28:26.905Z,12.85
2023-01-13T11:31:50.387Z,11.55
2023-01-13T11:35:04.893Z,12.97
2023-01-13T11:38:21.164Z,13.43
2023-01-13T11:41:35.162Z,12.23
2023-01-13T11:44:52.985Z,13.75
2023-01-13T11:48:00.948Z,14.35
2023-01-13T11:51:13.627Z,14.30
2023-01-13T11:54:51.509Z,12.88
2023-01-13T11:58:01.840Z,13.75
2023-01-13T12:01:24.997Z,15.27
2023-01-13T12:04:40.902Z,16.77
2023-01-13T12:07:55.740Z,14.03
2023-01-13T12:11:12.977Z,12.32
2023-01-13T12:14:36.109Z,10.43
2023-01-13T12:18:09.006Z,15.75
2023-01-13T12:21:19.667Z,15.70
2023-01-13T12:24:39.404Z,14.53
2023-01-13T12:28:08.890Z,17.77
2023-01-13T12:31:16.920Z,15.25
2023-01-13T12:34:41.227Z,17.12
2023-01-13T12:38:05.364Z,13.68
2023-01-13T12:41:40.936Z,16.27
2023-01-13T12:45:11.082Z,16.67
2023-01-13T12:48:45.157Z,16.85
2023-01-13T12:52:01.911Z,17.27
2023-01-13T12:55:12.786Z,17.25
2023-01-13T12:58:18.967Z,16.60
2023-01-13T13:01:38.102Z,14.73
2023-01-13T13:04:52.476Z,15.88
2023-01-13T13:08:22.317Z,15.73
2023-01-13T13:11:58.976Z,14.32
2023-01-13T13:15:22.665Z,15.33
2023-01-13T13:18:32.412Z,15.25
2023-01-13T13:22:16.871Z,15.35
2023-01-13T13:25:24.931Z,13.27
2023-01-13T13:28:36.421Z,13.73
2023-01-13T13:32:25.101Z,13.30
2023-01-13T13:35:40.996Z,16.83
2023-01-13T13:39:35.180Z,12.82
2023-01-13T13:43:04.043Z,15.43
2023-01-13T13:46:47.169Z,15.55
2023-01-13T13:50:02.818Z,14.83
2023-01-13T13:53:21.820Z,13.75
2023-01-13T13:56:30.257Z,15.00
2023-01-13T13:59:47.933Z,15.38
2023-01-13T14:03:12.283Z,14.40
2023-01-13T14:06:25.939Z,11.83
2023-01-13T14:09:42.967Z,12.50
2023-01-13T14:12:54.867Z,13.85
2023-01-13T14:16:13.483Z,13.23
2023-01-13T14:19:34.856Z,14.05
2023-01-13T14:22:55.144Z,13.80
2023-01-13T14:26:09.066Z,14.02
2023-01-13T14:29:29.867Z,15.35
2023-01-13T14:32:36.925Z,14.07
2023-01-13T14:36:01.940Z,14.27
2023-01-13T14:39:21.746Z,12.20
2023-01-13T14:42:35.690Z,12.98
2023-01-13T14:45:55.204Z,13.98
2023-01-13T14:49:04.846Z,15.60
2023-01-13T14:52:20.829Z,15.48
2023-01-13T14:55:41.847Z,14.40
2023-01-13T14:58:45.379Z,14.85
2023-01-13T15:01:54.308Z,14.98
2023-01-13T15:05:25.843Z,16.17
2023-01-13T15:08:36.831Z,18.42
2023-01-13T15:11:41.588Z,17.83
2023-01-13T15:14:59.158Z,16.80
2023-01-13T15:18:14.052Z,20.10
2023-01-13T15:21:23.499Z,17.27
2023-01-13T15:24:28.512Z,17.70
2023-01-13T15:27:40.735Z,18.70
2023-01-13T15:30:56.032Z,14.50
2023-01-13T15:34:00.846Z,17.05
2023-01-13T15:37:05.039Z,18.08
2023-01-13T15:40:33.274Z,16.33
2023-01-13T15:44:02.720Z,14.63
2023-01-13T15:47:15.131Z,14.87
2023-01-13T15:50:27.955Z,14.43
2023-01-13T15:53:39.841Z,14.55
2023-01-13T15:56:43.932Z,17.00
2023-01-13T15:59:50.896Z,16.20
2023-01-13T16:03:06.892Z,14.27
2023-01-13T16:06:21.098Z,14.87
2023-01-13T16:09:27.751Z,13.85
2023-01-13T16:12:32.538Z,14.43
2023-01-13T16:15:46.394Z,14.20
2023-01-13T16:18:50.811Z,13.82
2023-01-13T16:22:08.724Z,17.95
2023-01-13T16:25:30.958Z,18.05
2023-01-13T16:28:37.727Z,25.75
2023-01-13T16:31:42.893Z,20.60
2023-01-13T16:34:51.577Z,18.80
2023-01-13T16:38:01.792Z,22.27
2023-01-13T16:41:16.182Z,22.75
2023-01-13T16:44:20.375Z,20.23
2023-01-13T16:47:26.895Z,21.70
2023-01-13T16:50:41.849Z,19.85
2023-01-13T16:53:55.921Z,24.27
2023-01-13T16:57:13.950Z,29.45
2023-01-13T17:00:26.033Z,24.12
2023-01-13T17:03:36.022Z,23.03
2023-01-13T17:07:19.259Z,17.25
2023-01-13T17:10:26.124Z,19.25
2023-01-13T17:13:39.042Z,19.87
2023-01-13T17:16:52.076Z,21.83
2023-01-13T17:20:15.826Z,22.60
2023-01-13T17:23:23.645Z,20.08
2023-01-13T17:26:32.567Z,21.62
2023-01-13T17:29:36.150Z,24.95
2023-01-13T17:32:43.142Z,25.37
2023-01-13T17:35:56.122Z,22.47
2023-01-13T17:39:07.979Z,20.80
2023-01-13T17:42:19.020Z,21.90
2023-01-13T17:45:24.007Z,22.40
2023-01-13T17:48:29.054Z,19.42
2023-01-13T17:51:32.864Z,17.83
2023-01-13T17:54:43.942Z,18.10
2023-01-13T17:58:09.213Z,18.95
2023-01-13T18:01:31.129Z,25.90
2023-01-13T18:04:47.954Z,32.33
2023-01-13T18:07:58.021Z,29.40
2023-01-13T18:11:19.152Z,26.60
2023-01-13T18:14:24.085Z,24.90
2023-01-13T18:17:28.402Z,24.33
2023-01-13T18:21:07.143Z,25.10
2023-01-13T18:24:32.829Z,26.60
2023-01-13T18:27:44.871Z,42.25
2023-01-13T18:30:58.251Z,44.03
2023-01-13T18:34:02.356Z,38.83
2023-01-13T18:37:25.140Z,30.30
2023-01-13T18:40:35.765Z,26.23
2023-01-13T18:43:41.689Z,24.00
2023-01-13T18:46:45.923Z,27.25
2023-01-13T18:49:51.868Z,24.42
2023-01-13T18:53:11.801Z,25.30
2023-01-13T18:56:31.874Z,21.13
2023-01-13T18:59:37.406Z,20.77
2023-01-13T19:02:43.094Z,22.55
2023-01-13T19:05:50.104Z,23.10
2023-01-13T19:09:08.278Z,23.15
2023-01-13T19:12:17.842Z,24.30
2023-01-13T19:15:21.856Z,24.15
2023-01-13T19:18:26.994Z,26.98
2023-01-13T19:21:32.879Z,25.08
2023-01-13T19:24:40.872Z,22.17
2023-01-13T19:27:50.083Z,19.67
2023-01-13T19:31:00.439Z,20.17
2023-01-13T19:34:04.272Z,25.42
2023-01-13T19:37:09.839Z,27.62
2023-01-13T19:40:20.360Z,25.55
2023-01-13T19:43:51.745Z,25.67
2023-01-13T19:47:01.143Z,26.42
2023-01-13T19:50:11.090Z,26.20
2023-01-13T19:53:31.809Z,29.25
2023-01-13T19:56:35.782Z,33.05
2023-01-13T19:59:43.870Z,30.00
2023-01-13T20:02:49.734Z,34.55
2023-01-13T20:06:13.790Z,35.25
2023-01-13T20:09:19.784Z,33.50
2023-01-13T20:12:26.887Z,31.20
2023-01-13T20:15:37.353Z,29.70
2023-01-13T20:18:54.849Z,31.02
2023-01-13T20:22:06.789Z,31.85
2023-01-13T20:25:19.848Z,28.48
2023-01-13T20:28:24.866Z,28.90
2023-01-13T20:31:30.080Z,29.13
2023-01-13T20:34:33.563Z,29.00
2023-01-13T20:37:38.615Z,28.05
2023-01-13T20:40:43.808Z,29.17
2023-01-13T20:43:52.888Z,29.85
2023-01-13T20:46:59.361Z,27.00
2023-01-13T20:50:10.810Z,28.45
2023-01-13T20:53:18.285Z,31.35
2023-01-13T20:56:23.132Z,36.60
2023-01-13T20:59:39.764Z,45.97
2023-01-13T21:02:56.772Z,31.37
2023-01-13T21:06:00.165Z,27.40
2023-01-13T21:09:07.585Z,27.02
2023-01-13T21:12:42.611Z,25.70
2023-01-13T21:15:49.748Z,28.55
2023-01-13T21:19:11.905Z,25.50
2023-01-13T21:22:23.043Z,31.40
2023-01-13T21:25:28.985Z,34.28
2023-01-13T21:28:41.805Z,32.70
2023-01-13T21:31:44.850Z,28.30
2023-01-13T21:34:48.822Z,27.87
2023-01-13T21:37:51.935Z,28.60
2023-01-13T21:41:09.849Z,33.15
2023-01-13T21:44:41.757Z,39.45
2023-01-13T21:47:50.861Z,30.35
2023-01-13T21:50:55.350Z,30.90
2023-01-13T21:53:59.240Z,29.48
2023-01-13T21:57:05.146Z,27.95
2023-01-13T22:00:11.988Z,24.87
2023-01-13T22:03:18.696Z,27.37
2023-01-13T22:06:23.209Z,22.70
2023-01-13T22:09:30.394Z,23.02
2023-01-13T22:12:44.832Z,22.13
2023-01-13T22:15:57.300Z,21.83
2023-01-13T22:19:00.884Z,20.52
2023-01-13T22:22:10.851Z,23.10
2023-01-13T22:25:16.911Z,22.13
2023-01-13T22:28:34.818Z,23.92
2023-01-13T22:31:42.110Z,23.80
2023-01-13T22:34:51.081Z,26.10
2023-01-13T22:37:55.014Z,24.37
2023-01-13T22:41:06.803Z,22.65
2023-01-13T22:44:13.144Z,25.15
2023-01-13T22:47:24.773Z,26.52
2023-01-13T22:50:34.039Z,27.95
2023-01-13T22:53:38.985Z,25.60
2023-01-13T22:56:41.877Z,25.75
2023-01-13T22:59:46.857Z,25.92
2023-01-13T23:02:50.056Z,24.83
2023-01-13T23:06:01.926Z,24.95
2023-01-13T23:09:05.816Z,25.67
2023-01-13T23:12:09.236Z,26.48
2023-01-13T23:15:13.139Z,25.73
2023-01-13T23:18:17.277Z,24.48
2023-01-13T23:21:24.199Z,24.92
2023-01-13T23:24:30.783Z,25.87
2023-01-13T23:27:37.181Z,25.70
2023-01-13T23:30:44.091Z,26.80
2023-01-13T23:33:49.054Z,25.85
2023-01-13T23:36:51.904Z,26.75
2023-01-13T23:39:54.724Z,25.33
2023-01-13T23:42:59.208Z,26.75
2023-01-13T23:46:05.033Z,26.12
2023-01-13T23:49:09.426Z,24.40
2023-01-13T23:52:12.561Z,24.37
2023-01-13T23:55:20.005Z,24.53
2023-01-13T23:58:23.248Z,24.45
